createdAt,value
2022-12-25T00:01:33.918Z,4.88
2022-12-25T00:04:01.866Z,4.77
2022-12-25T00:06:29.422Z,4.82
2022-12-25T00:08:57.047Z,4.77
2022-12-25T00:11:24.938Z,4.74
2022-12-25T00:13:52.474Z,4.84
2022-12-25T00:16:24.855Z,4.86
2022-12-25T00:18:53.685Z,5.01
2022-12-25T00:21:22.343Z,5.03
2022-12-25T00:23:54.560Z,5.11
2022-12-25T00:26:22.822Z,5.11
2022-12-25T00:28:57.896Z,5.14
2022-12-25T00:31:25.907Z,5.19
2022-12-25T00:33:54.330Z,5.20
2022-12-25T00:36:25.335Z,5.22
2022-12-25T00:38:53.172Z,5.21
2022-12-25T00:41:43.162Z,5.39
2022-12-25T00:44:13.597Z,5.37
2022-12-25T00:46:42.493Z,5.32
2022-12-25T00:49:11.552Z,5.34
2022-12-25T00:51:39.665Z,5.46
2022-12-25T00:54:07.370Z,5.43
2022-12-25T00:56:34.973Z,5.42
2022-12-25T00:59:02.858Z,5.45
2022-12-25T01:01:30.715Z,5.48
2022-12-25T01:03:58.708Z,5.51
2022-12-25T01:06:26.947Z,5.50
2022-12-25T01:09:13.255Z,5.61
2022-12-25T01:11:41.137Z,5.63
2022-12-25T01:14:09.134Z,5.65
2022-12-25T01:16:36.846Z,5.66
2022-12-25T01:19:04.926Z,5.60
2022-12-25T01:21:32.710Z,5.71
2022-12-25T01:24:00.203Z,5.81
2022-12-25T01:26:29.236Z,5.84
2022-12-25T01:28:57.944Z,5.92
2022-12-25T01:31:26.313Z,5.92
2022-12-25T01:33:54.247Z,6.12
2022-12-25T01:36:23.844Z,6.15
2022-12-25T01:38:53.125Z,6.15
2022-12-25T01:41:24.552Z,6.23
2022-12-25T01:44:15.525Z,6.29
2022-12-25T01:46:43.725Z,6.26
2022-12-25T01:49:15.315Z,6.24
2022-12-25T01:52:24.193Z,6.31
2022-12-25T01:55:00.531Z,6.45
2022-12-25T01:57:31.271Z,6.48
2022-12-25T01:59:59.420Z,6.51
2022-12-25T02:02:28.123Z,6.64
2022-12-25T02:05:01.723Z,6.59
2022-12-25T02:07:29.954Z,6.75
2022-12-25T02:09:57.903Z,6.71
2022-12-25T02:12:28.284Z,6.69
2022-12-25T02:15:04.927Z,6.76
2022-12-25T02:17:38.841Z,6.74
2022-12-25T02:20:28.499Z,6.71
2022-12-25T02:23:17.404Z,6.69
2022-12-25T02:26:22.530Z,6.74
2022-12-25T02:29:07.824Z,6.58
2022-12-25T02:31:35.306Z,6.64
2022-12-25T02:34:11.012Z,6.72
2022-12-25T02:36:44.572Z,6.63
2022-12-25T02:39:43.480Z,6.64
2022-12-25T02:42:15.233Z,6.64
2022-12-25T02:45:04.493Z,6.68
2022-12-25T02:47:51.004Z,6.68
2022-12-25T02:50:37.900Z,6.72
2022-12-25T02:53:25.144Z,6.68
2022-12-25T02:56:11.537Z,6.64
2022-12-25T02:58:58.242Z,6.55
2022-12-25T03:01:47.981Z,6.55
2022-12-25T03:04:37.903Z,6.65
2022-12-25T03:07:12.299Z,6.65
2022-12-25T03:10:01.124Z,6.59
2022-12-25T03:12:38.529Z,6.66
2022-12-25T03:15:26.101Z,6.59
2022-12-25T03:17:56.415Z,6.66
2022-12-25T03:20:42.701Z,6.68
2022-12-25T03:23:31.141Z,6.68
2022-12-25T03:26:17.285Z,6.68
2022-12-25T03:28:45.349Z,6.68
2022-12-25T03:31:17.312Z,6.70
2022-12-25T03:34:28.569Z,6.62
2022-12-25T03:37:29.868Z,6.58
2022-12-25T03:40:27.585Z,6.62
2022-12-25T03:43:56.254Z,6.52
2022-12-25T03:46:44.645Z,6.51
2022-12-25T03:49:41.068Z,6.48
2022-12-25T03:52:31.167Z,6.41
2022-12-25T03:55:19.370Z,6.40
2022-12-25T03:58:05.753Z,6.44
2022-12-25T04:00:51.782Z,6.42
2022-12-25T04:03:38.351Z,6.37
2022-12-25T04:06:24.398Z,6.42
2022-12-25T04:09:10.802Z,6.44
2022-12-25T04:12:02.234Z,6.44
2022-12-25T04:14:51.067Z,6.47
2022-12-25T04:17:36.871Z,6.49
2022-12-25T04:20:23.862Z,6.45
2022-12-25T04:23:23.796Z,6.53
2022-12-25T04:26:10.414Z,6.45
2022-12-25T04:28:56.617Z,6.48
2022-12-25T04:31:42.891Z,6.47
2022-12-25T04:34:28.594Z,6.48
2022-12-25T04:36:56.471Z,6.55
2022-12-25T04:39:24.036Z,6.58
2022-12-25T04:41:51.628Z,6.59
2022-12-25T04:44:19.379Z,6.68
2022-12-25T04:46:46.889Z,6.77
2022-12-25T04:49:14.503Z,6.79
2022-12-25T04:51:42.357Z,6.75
2022-12-25T04:54:09.863Z,6.67
2022-12-25T04:56:43.499Z,6.67
2022-12-25T04:59:13.520Z,6.63
2022-12-25T05:01:41.269Z,6.63
2022-12-25T05:04:08.871Z,6.60
2022-12-25T05:06:36.593Z,6.55
2022-12-25T05:09:04.198Z,6.52
2022-12-25T05:11:31.842Z,6.47
2022-12-25T05:13:59.643Z,6.45
2022-12-25T05:16:27.513Z,6.43
2022-12-25T05:18:55.264Z,6.35
2022-12-25T05:21:23.515Z,6.21
2022-12-25T05:23:52.161Z,6.25
2022-12-25T05:26:22.589Z,6.17
2022-12-25T05:28:50.397Z,6.15
2022-12-25T05:31:18.998Z,6.13
2022-12-25T05:33:49.668Z,6.11
2022-12-25T05:36:17.506Z,6.02
2022-12-25T05:38:44.986Z,5.89
2022-12-25T05:41:12.943Z,5.85
2022-12-25T05:43:40.748Z,5.76
2022-12-25T05:46:09.695Z,5.77
2022-12-25T05:48:38.389Z,5.83
2022-12-25T05:51:08.390Z,5.75
2022-12-25T05:53:36.400Z,5.69
2022-12-25T05:56:06.591Z,5.69
2022-12-25T05:58:36.296Z,5.56
2022-12-25T06:01:04.928Z,5.60
2022-12-25T06:03:32.877Z,5.67
2022-12-25T06:06:02.995Z,5.70
2022-12-25T06:08:30.534Z,5.75
2022-12-25T06:10:58.312Z,5.83
2022-12-25T06:13:25.899Z,5.88
2022-12-25T06:15:53.468Z,5.97
2022-12-25T06:18:21.227Z,6.00
2022-12-25T06:20:49.069Z,6.03
2022-12-25T06:23:16.682Z,6.09
2022-12-25T06:25:44.503Z,6.18
2022-12-25T06:28:12.045Z,6.06
2022-12-25T06:30:39.631Z,6.08
2022-12-25T06:33:07.422Z,6.08
2022-12-25T06:35:34.929Z,6.11
2022-12-25T06:38:02.538Z,6.08
2022-12-25T06:40:30.391Z,6.08
2022-12-25T06:42:57.980Z,6.03
2022-12-25T06:45:25.588Z,6.03
2022-12-25T06:47:53.490Z,6.01
2022-12-25T06:50:21.035Z,6.07
2022-12-25T06:52:48.519Z,6.00
2022-12-25T06:55:16.388Z,5.91
2022-12-25T06:57:44.040Z,5.93
2022-12-25T07:00:12.086Z,6.02
2022-12-25T07:02:42.111Z,6.04
2022-12-25T07:05:09.711Z,6.12
2022-12-25T07:07:37.367Z,6.16
2022-12-25T07:10:05.641Z,6.17
2022-12-25T07:12:33.354Z,6.27
2022-12-25T07:15:02.438Z,6.29
2022-12-25T07:17:30.314Z,6.33
2022-12-25T07:19:57.930Z,6.37
2022-12-25T07:22:25.434Z,6.40
2022-12-25T07:24:53.162Z,6.43
2022-12-25T07:27:20.770Z,6.45
2022-12-25T07:29:48.304Z,6.48
2022-12-25T07:32:16.143Z,6.53
2022-12-25T07:34:43.742Z,6.56
2022-12-25T07:37:11.430Z,6.57
2022-12-25T07:39:39.275Z,6.74
2022-12-25T07:42:07.389Z,6.72
2022-12-25T07:44:34.944Z,6.77
2022-12-25T07:47:02.792Z,6.79
2022-12-25T07:49:30.404Z,6.83
2022-12-25T07:51:58.232Z,6.84
2022-12-25T07:54:26.054Z,6.86
2022-12-25T07:56:53.650Z,6.96
2022-12-25T07:59:21.500Z,6.99
2022-12-25T08:01:50.548Z,7.03
2022-12-25T08:04:18.716Z,7.06
2022-12-25T08:06:48.567Z,7.11
2022-12-25T08:09:19.493Z,7.16
2022-12-25T08:11:47.637Z,7.21
2022-12-25T08:14:15.337Z,7.20
2022-12-25T08:16:43.320Z,7.29
2022-12-25T08:19:11.444Z,7.34
2022-12-25T08:21:38.985Z,7.39
2022-12-25T08:24:06.995Z,7.44
2022-12-25T08:26:34.513Z,7.47
2022-12-25T08:29:02.420Z,7.55
2022-12-25T08:31:31.181Z,7.63
2022-12-25T08:33:59.856Z,7.68
2022-12-25T08:36:27.847Z,7.75
2022-12-25T08:39:02.465Z,7.80
2022-12-25T08:41:31.848Z,7.86
2022-12-25T08:43:59.683Z,7.91
2022-12-25T08:46:27.323Z,7.96
2022-12-25T08:48:56.789Z,8.02
2022-12-25T08:51:25.714Z,8.08
2022-12-25T08:53:55.922Z,8.16
2022-12-25T08:56:23.758Z,8.22
2022-12-25T08:58:51.237Z,8.29
2022-12-25T09:01:18.858Z,8.33
2022-12-25T09:03:47.418Z,8.36
2022-12-25T09:06:16.386Z,8.38
2022-12-25T09:08:49.107Z,8.42
2022-12-25T09:11:18.840Z,8.46
2022-12-25T09:13:46.610Z,8.53
2022-12-25T09:16:17.629Z,8.58
2022-12-25T09:18:45.666Z,8.63
2022-12-25T09:21:14.468Z,8.68
2022-12-25T09:23:42.576Z,8.73
2022-12-25T09:26:12.706Z,8.79
2022-12-25T09:28:43.712Z,8.81
2022-12-25T09:31:14.791Z,8.86
2022-12-25T09:33:42.421Z,8.99
2022-12-25T09:36:10.982Z,9.06
2022-12-25T09:38:38.947Z,9.13
2022-12-25T09:41:37.471Z,9.20
2022-12-25T09:44:15.544Z,9.30
2022-12-25T09:46:51.420Z,9.40
2022-12-25T09:49:42.519Z,9.50
2022-12-25T09:52:17.250Z,9.55
2022-12-25T09:54:53.524Z,9.64
2022-12-25T09:57:21.015Z,9.72
2022-12-25T09:59:48.918Z,9.79
2022-12-25T10:02:37.091Z,9.89
2022-12-25T10:05:31.669Z,9.93
2022-12-25T10:08:05.314Z,9.99
2022-12-25T10:10:38.871Z,10.05
2022-12-25T10:13:38.093Z,10.09
2022-12-25T10:16:11.723Z,10.15
2022-12-25T10:18:45.631Z,10.23
2022-12-25T10:21:15.232Z,10.30
2022-12-25T10:23:58.055Z,10.34
2022-12-25T10:26:26.319Z,10.41
2022-12-25T10:28:57.869Z,10.42
2022-12-25T10:31:29.843Z,10.52
2022-12-25T10:33:58.036Z,10.57
2022-12-25T10:36:28.784Z,10.62
2022-12-25T10:38:57.233Z,10.69
2022-12-25T10:41:34.357Z,10.74
2022-12-25T10:44:20.191Z,10.79
2022-12-25T10:46:49.531Z,10.86
2022-12-25T10:49:20.762Z,10.96
2022-12-25T10:51:48.377Z,11.05
2022-12-25T10:54:27.493Z,11.13
2022-12-25T10:57:04.691Z,11.21
2022-12-25T10:59:42.848Z,11.28
2022-12-25T11:02:36.317Z,11.34
2022-12-25T11:05:09.690Z,11.40
2022-12-25T11:07:51.320Z,11.47
2022-12-25T11:10:44.003Z,11.52
2022-12-25T11:13:20.216Z,11.56
2022-12-25T11:16:09.437Z,11.59
2022-12-25T11:18:56.368Z,11.61
2022-12-25T11:21:32.956Z,11.58
2022-12-25T11:24:05.927Z,11.62
2022-12-25T11:26:50.484Z,11.62
2022-12-25T11:29:47.485Z,11.63
2022-12-25T11:32:38.165Z,11.59
2022-12-25T11:35:13.193Z,11.59
2022-12-25T11:37:48.397Z,11.58
2022-12-25T11:40:19.080Z,11.55
2022-12-25T11:42:52.599Z,11.50
2022-12-25T11:45:32.219Z,11.46
2022-12-25T11:48:10.831Z,11.42
2022-12-25T11:50:42.332Z,11.41
2022-12-25T11:53:30.122Z,11.37
2022-12-25T11:56:05.988Z,11.39
2022-12-25T11:58:36.752Z,11.39
2022-12-25T12:01:33.910Z,11.42
2022-12-25T12:04:04.072Z,11.41
2022-12-25T12:06:51.889Z,11.38
2022-12-25T12:09:50.102Z,11.46
2022-12-25T12:12:22.460Z,11.51
2022-12-25T12:15:17.510Z,11.54
2022-12-25T12:17:45.077Z,11.56
2022-12-25T12:20:26.363Z,11.54
2022-12-25T12:22:54.006Z,11.54
2022-12-25T12:25:22.855Z,11.56
2022-12-25T12:28:04.508Z,11.52
2022-12-25T12:30:35.537Z,11.51
2022-12-25T12:33:05.770Z,11.51
2022-12-25T12:35:36.494Z,11.50
2022-12-25T12:38:13.280Z,11.48
2022-12-25T12:40:42.072Z,11.48
2022-12-25T12:43:41.935Z,11.52
2022-12-25T12:46:16.060Z,11.57
2022-12-25T12:48:46.363Z,11.60
2022-12-25T12:51:27.783Z,11.64
2022-12-25T12:54:21.348Z,11.66
2022-12-25T12:57:00.328Z,11.66
2022-12-25T12:59:44.501Z,11.65
2022-12-25T13:02:33.787Z,11.62
2022-12-25T13:05:07.236Z,11.56
2022-12-25T13:07:53.581Z,11.52
2022-12-25T13:10:36.724Z,11.46
2022-12-25T13:13:16.478Z,11.43
2022-12-25T13:15:46.631Z,11.43
2022-12-25T13:18:14.708Z,11.41
2022-12-25T13:20:56.941Z,11.32
2022-12-25T13:23:29.378Z,11.26
2022-12-25T13:25:59.871Z,11.24
2022-12-25T13:28:33.729Z,11.23
2022-12-25T13:31:03.042Z,11.17
2022-12-25T13:33:31.018Z,11.16
2022-12-25T13:35:58.661Z,11.11
2022-12-25T13:38:28.000Z,11.08
2022-12-25T13:41:15.395Z,11.04
2022-12-25T13:43:43.931Z,11.03
2022-12-25T13:46:14.003Z,11.03
2022-12-25T13:48:42.552Z,10.97
2022-12-25T13:51:15.952Z,10.92
2022-12-25T13:53:44.147Z,10.90
2022-12-25T13:56:16.247Z,10.88
2022-12-25T13:58:46.628Z,10.85
2022-12-25T14:01:16.043Z,10.80
2022-12-25T14:03:46.747Z,10.78
2022-12-25T14:06:25.305Z,10.74
2022-12-25T14:08:54.596Z,10.71
2022-12-25T14:11:25.935Z,10.67
2022-12-25T14:13:58.905Z,10.66
2022-12-25T14:16:26.981Z,10.58
2022-12-25T14:18:59.354Z,10.53
2022-12-25T14:21:38.438Z,10.50
2022-12-25T14:24:13.812Z,10.43
2022-12-25T14:26:41.368Z,10.36
2022-12-25T14:29:17.212Z,10.21
2022-12-25T14:31:46.344Z,10.13
2022-12-25T14:34:24.478Z,10.07
2022-12-25T14:36:52.800Z,9.99
2022-12-25T14:39:35.883Z,9.95
2022-12-25T14:42:14.039Z,9.87
2022-12-25T14:44:41.976Z,9.81
2022-12-25T14:47:19.935Z,9.77
2022-12-25T14:49:48.282Z,9.75
2022-12-25T14:52:23.341Z,9.71
2022-12-25T14:55:03.873Z,9.62
2022-12-25T14:57:34.736Z,9.60
2022-12-25T15:00:26.620Z,9.50
2022-12-25T15:02:56.213Z,9.47
2022-12-25T15:05:39.135Z,9.41
2022-12-25T15:08:11.127Z,9.38
2022-12-25T15:10:59.725Z,9.35
2022-12-25T15:13:28.717Z,9.31
2022-12-25T15:16:06.942Z,9.24
2022-12-25T15:18:38.920Z,9.19
2022-12-25T15:21:07.367Z,9.10
2022-12-25T15:23:34.899Z,9.03
2022-12-25T15:26:02.515Z,8.96
2022-12-25T15:28:30.571Z,8.85
2022-12-25T15:30:58.323Z,8.82
2022-12-25T15:33:25.990Z,8.81
2022-12-25T15:35:53.932Z,8.72
2022-12-25T15:38:21.492Z,8.72
2022-12-25T15:40:48.978Z,8.72
2022-12-25T15:46:05.568Z,8.63
2022-12-25T15:48:33.647Z,8.56
2022-12-25T15:51:01.082Z,8.49
2022-12-25T15:53:28.982Z,8.51
2022-12-25T15:55:57.082Z,8.50
2022-12-25T15:58:24.688Z,8.56
2022-12-25T16:00:52.203Z,8.54
2022-12-25T16:03:20.119Z,8.57
2022-12-25T16:05:47.794Z,8.56
2022-12-25T16:08:15.346Z,8.56
2022-12-25T16:10:43.134Z,8.57
2022-12-25T16:13:10.726Z,8.56
2022-12-25T16:15:38.235Z,8.54
2022-12-25T16:18:06.462Z,8.53
2022-12-25T16:20:35.380Z,8.53
2022-12-25T16:23:02.923Z,8.49
2022-12-25T16:25:30.816Z,8.48
2022-12-25T16:27:58.368Z,8.48
2022-12-25T16:30:25.932Z,8.48
2022-12-25T16:32:54.120Z,8.48
2022-12-25T16:35:21.711Z,8.43
2022-12-25T16:37:49.618Z,8.48
2022-12-25T16:40:18.101Z,8.48
2022-12-25T16:42:45.653Z,8.48
2022-12-25T16:45:13.244Z,8.48
2022-12-25T16:47:41.348Z,8.47
2022-12-25T16:50:09.513Z,8.46
2022-12-25T16:52:37.023Z,8.46
2022-12-25T16:55:05.408Z,8.46
2022-12-25T16:57:33.047Z,8.45
2022-12-25T17:00:01.058Z,8.44
2022-12-25T17:02:29.166Z,8.44
2022-12-25T17:04:56.943Z,8.41
2022-12-25T17:07:24.417Z,8.41
2022-12-25T17:09:52.277Z,8.37
2022-12-25T17:12:19.986Z,8.38
2022-12-25T17:14:47.511Z,8.38
2022-12-25T17:17:15.330Z,8.35
2022-12-25T17:19:45.096Z,8.36
2022-12-25T17:22:13.212Z,8.30
2022-12-25T17:24:41.659Z,8.30
2022-12-25T17:27:09.474Z,8.27
2022-12-25T17:29:39.816Z,8.30
2022-12-25T17:32:08.229Z,8.26
2022-12-25T17:34:36.048Z,8.24
2022-12-25T17:37:04.274Z,8.23
2022-12-25T17:39:32.318Z,8.19
2022-12-25T17:41:59.860Z,8.18
2022-12-25T17:44:27.470Z,8.18
2022-12-25T17:46:55.391Z,8.16
2022-12-25T17:49:23.432Z,8.16
2022-12-25T17:51:51.052Z,8.14
2022-12-25T17:54:19.018Z,8.15
2022-12-25T17:56:46.551Z,8.15
2022-12-25T17:59:18.479Z,8.13
2022-12-25T18:01:47.242Z,8.13
2022-12-25T18:04:15.191Z,8.12
2022-12-25T18:06:42.798Z,8.11
2022-12-25T18:09:11.333Z,8.11
2022-12-25T18:11:41.070Z,8.08
2022-12-25T18:14:12.549Z,8.10
2022-12-25T18:16:43.284Z,8.10
2022-12-25T18:19:11.823Z,8.11
2022-12-25T18:21:39.422Z,8.08
2022-12-25T18:24:07.949Z,8.05
2022-12-25T18:26:35.785Z,8.06
2022-12-25T18:29:03.835Z,8.07
2022-12-25T18:31:31.826Z,8.06
2022-12-25T18:34:00.211Z,8.04
2022-12-25T18:36:29.184Z,8.01
2022-12-25T18:38:58.067Z,8.04
2022-12-25T18:41:28.124Z,8.03
2022-12-25T18:43:56.275Z,8.03
2022-12-25T18:46:25.688Z,7.99
2022-12-25T18:48:57.246Z,7.99
2022-12-25T18:51:29.865Z,7.99
2022-12-25T18:54:02.685Z,8.00
2022-12-25T18:56:30.512Z,8.00
2022-12-25T18:59:01.569Z,7.99
2022-12-25T19:01:29.102Z,7.96
2022-12-25T19:04:04.680Z,7.99
2022-12-25T19:06:33.402Z,7.95
2022-12-25T19:09:08.773Z,7.97
2022-12-25T19:11:41.984Z,7.95
2022-12-25T19:14:14.228Z,7.96
2022-12-25T19:16:41.854Z,7.99
2022-12-25T19:19:09.452Z,7.98
2022-12-25T19:21:38.305Z,7.99
2022-12-25T19:24:06.309Z,7.97
2022-12-25T19:26:34.031Z,7.96
2022-12-25T19:29:02.694Z,7.97
2022-12-25T19:31:30.363Z,7.95
2022-12-25T19:33:57.894Z,7.94
2022-12-25T19:36:25.833Z,7.94
2022-12-25T19:38:53.735Z,7.96
2022-12-25T19:41:22.052Z,7.91
2022-12-25T19:43:50.360Z,7.90
2022-12-25T19:46:21.336Z,7.83
2022-12-25T19:48:49.023Z,7.87
2022-12-25T19:51:28.677Z,7.82
2022-12-25T19:53:56.599Z,7.85
2022-12-25T19:56:26.087Z,7.82
2022-12-25T19:58:54.068Z,7.81
2022-12-25T20:01:23.693Z,7.77
2022-12-25T20:03:51.886Z,7.80
2022-12-25T20:06:24.902Z,7.78
2022-12-25T20:08:54.662Z,7.73
2022-12-25T20:11:23.458Z,7.73
2022-12-25T20:13:51.277Z,7.77
2022-12-25T20:16:19.142Z,7.80
2022-12-25T20:18:46.862Z,7.80
2022-12-25T20:21:17.773Z,7.81
2022-12-25T20:23:47.769Z,7.77
2022-12-25T20:26:16.545Z,7.74
2022-12-25T20:28:44.604Z,7.77
2022-12-25T20:31:24.305Z,7.74
2022-12-25T20:33:51.988Z,7.72
2022-12-25T20:36:20.831Z,7.63
2022-12-25T20:38:49.040Z,7.57
2022-12-25T20:41:28.529Z,7.56
2022-12-25T20:43:57.387Z,7.58
2022-12-25T20:46:25.931Z,7.64
2022-12-25T20:48:54.925Z,7.67
2022-12-25T20:51:24.955Z,7.66
2022-12-25T20:53:53.304Z,7.67
2022-12-25T20:56:24.081Z,7.57
2022-12-25T20:58:56.360Z,7.63
2022-12-25T21:01:25.002Z,7.61
2022-12-25T21:03:53.450Z,7.63
2022-12-25T21:06:21.653Z,7.61
2022-12-25T21:08:49.648Z,7.59
2022-12-25T21:11:18.146Z,7.58
2022-12-25T21:13:46.267Z,7.58
2022-12-25T21:16:18.619Z,7.57
2022-12-25T21:18:47.387Z,7.50
2022-12-25T21:21:15.574Z,7.50
2022-12-25T21:23:43.160Z,7.50
2022-12-25T21:26:13.143Z,7.49
2022-12-25T21:28:41.357Z,7.47
2022-12-25T21:31:09.942Z,7.33
2022-12-25T21:33:53.694Z,7.40
2022-12-25T21:36:31.416Z,7.42
2022-12-25T21:39:05.505Z,7.47
2022-12-25T21:41:34.781Z,7.44
2022-12-25T21:44:02.721Z,7.46
2022-12-25T21:46:30.299Z,7.45
2022-12-25T21:48:58.772Z,7.44
2022-12-25T21:51:50.704Z,7.39
2022-12-25T21:54:20.299Z,7.47
2022-12-25T21:56:49.070Z,7.44
2022-12-25T21:59:18.959Z,7.44
2022-12-25T22:01:47.299Z,7.44
2022-12-25T22:04:16.514Z,7.44
2022-12-25T22:07:04.213Z,7.44
2022-12-25T22:09:32.178Z,7.45
2022-12-25T22:12:18.499Z,7.47
2022-12-25T22:14:57.133Z,7.50
2022-12-25T22:17:45.756Z,7.49
2022-12-25T22:20:18.468Z,7.53
2022-12-25T22:22:46.148Z,7.53
2022-12-25T22:25:14.453Z,7.57
2022-12-25T22:27:43.812Z,7.55
2022-12-25T22:30:17.966Z,7.58
2022-12-25T22:32:46.514Z,7.59
2022-12-25T22:35:15.273Z,7.56
2022-12-25T22:37:43.017Z,7.59
2022-12-25T22:40:14.435Z,7.50
2022-12-25T22:42:42.490Z,7.55
2022-12-25T22:45:10.535Z,7.52
2022-12-25T22:47:38.308Z,7.58
2022-12-25T22:50:06.485Z,7.55
2022-12-25T22:52:34.022Z,7.53
2022-12-25T22:55:02.603Z,7.52
2022-12-25T22:57:30.201Z,7.51
2022-12-25T22:59:57.774Z,7.49
2022-12-25T23:02:25.809Z,7.50
2022-12-25T23:04:53.767Z,7.49
2022-12-25T23:07:21.302Z,7.43
2022-12-25T23:09:49.282Z,7.44
2022-12-25T23:12:35.246Z,7.45
2022-12-25T23:15:03.022Z,7.46
2022-12-25T23:17:49.382Z,7.46
2022-12-25T23:20:35.731Z,7.46
2022-12-25T23:23:21.627Z,7.44
2022-12-25T23:26:07.586Z,7.42
2022-12-25T23:28:59.388Z,7.45
2022-12-25T23:31:31.733Z,7.37
2022-12-25T23:33:59.754Z,7.34
2022-12-25T23:36:28.226Z,7.40
2022-12-25T23:38:55.832Z,7.34
2022-12-25T23:41:23.342Z,7.34
2022-12-25T23:43:51.127Z,7.39
2022-12-25T23:46:18.746Z,7.39
2022-12-25T23:48:46.467Z,7.38
2022-12-25T23:51:14.317Z,7.37
2022-12-25T23:53:42.130Z,7.37
2022-12-25T23:56:10.672Z,7.36
2022-12-25T23:58:38.708Z,7.37
